MM-0003 weather

Langkho Airport
Langhko, Shan State, Burma

Public forecast

Using degrees Celsius for public forecast. Weather courtesy of forecast.io.

Closest aviation weather report (METAR) to Langkho Airport

Closest report is Mae Hong Son Airport, 63.0 nm (116.7 km) S. Retrieved 2020/01/28 00:00 UTC (20 minutes ago):

VTCH 280000Z 00000KT 6000 NSC 09/08 Q1013 NOSIG

Closest aviation forecast (TAF) to Langkho Airport

Closest forecast is Mae Hong Son Airport, 63.0 nm (116.7 km) S. Retrieved 2020-01-28 00:00 UTC (20 minutes ago):

TAF VTCH 272300Z 2800/2824 30004KT 2000 BR NSC BECMG 2801/2803 9000 NSW